sensor_id;sensor_type;location;lat;lon;timestamp;temperature;humidity
66422;DHT22;53228;51.380;0.098;2022-07-25T00:01:56;20.60;99.90
66422;DHT22;53228;51.380;0.098;2022-07-25T00:04:24;20.70;99.90
66422;DHT22;53228;51.380;0.098;2022-07-25T00:06:52;20.70;99.90
66422;DHT22;53228;51.380;0.098;2022-07-25T00:09:20;20.70;99.90
66422;DHT22;53228;51.380;0.098;2022-07-25T00:11:47;20.70;99.90
66422;DHT22;53228;51.380;0.098;2022-07-25T00:14:15;20.60;99.90
66422;DHT22;53228;51.380;0.098;2022-07-25T00:16:43;20.60;99.90
66422;DHT22;53228;51.380;0.098;2022-07-25T00:19:10;20.60;99.90
66422;DHT22;53228;51.380;0.098;2022-07-25T00:21:38;20.60;99.90
66422;DHT22;53228;51.380;0.098;2022-07-25T00:24:06;20.60;99.90
66422;DHT22;53228;51.380;0.098;2022-07-25T00:26:34;20.60;99.90
66422;DHT22;53228;51.380;0.098;2022-07-25T00:29:06;20.60;99.90
66422;DHT22;53228;51.380;0.098;2022-07-25T00:31:34;20.60;99.90
66422;DHT22;53228;51.380;0.098;2022-07-25T00:34:02;20.60;99.90
66422;DHT22;53228;51.380;0.098;2022-07-25T00:36:31;20.60;99.90
66422;DHT22;53228;51.380;0.098;2022-07-25T00:38:58;20.60;99.90
66422;DHT22;53228;51.380;0.098;2022-07-25T00:41:26;20.60;99.90
66422;DHT22;53228;51.380;0.098;2022-07-25T00:43:54;20.60;99.90
66422;DHT22;53228;51.380;0.098;2022-07-25T00:46:21;20.60;99.90
66422;DHT22;53228;51.380;0.098;2022-07-25T00:48:50;20.60;99.90
66422;DHT22;53228;51.380;0.098;2022-07-25T00:51:17;20.60;99.90
66422;DHT22;53228;51.380;0.098;2022-07-25T00:53:45;20.60;99.90
66422;DHT22;53228;51.380;0.098;2022-07-25T00:56:14;20.60;99.90
66422;DHT22;53228;51.380;0.098;2022-07-25T00:58:44;20.50;99.90
66422;DHT22;53228;51.380;0.098;2022-07-25T01:01:12;20.50;99.90
66422;DHT22;53228;51.380;0.098;2022-07-25T01:03:39;20.50;99.90
66422;DHT22;53228;51.380;0.098;2022-07-25T01:06:07;20.50;99.90
66422;DHT22;53228;51.380;0.098;2022-07-25T01:08:35;20.40;99.90
66422;DHT22;53228;51.380;0.098;2022-07-25T01:11:03;20.40;99.90
66422;DHT22;53228;51.380;0.098;2022-07-25T01:13:32;20.40;99.90
66422;DHT22;53228;51.380;0.098;2022-07-25T01:16:00;20.30;99.90
66422;DHT22;53228;51.380;0.098;2022-07-25T01:18:28;20.30;99.90
66422;DHT22;53228;51.380;0.098;2022-07-25T01:20:56;20.30;99.90
66422;DHT22;53228;51.380;0.098;2022-07-25T01:23:24;20.30;99.90
66422;DHT22;53228;51.380;0.098;2022-07-25T01:25:51;20.20;99.90
66422;DHT22;53228;51.380;0.098;2022-07-25T01:28:19;20.20;99.90
66422;DHT22;53228;51.380;0.098;2022-07-25T01:30:47;20.20;99.90
66422;DHT22;53228;51.380;0.098;2022-07-25T01:33:17;20.10;99.90
66422;DHT22;53228;51.380;0.098;2022-07-25T01:35:45;20.10;99.90
66422;DHT22;53228;51.380;0.098;2022-07-25T01:38:13;20.10;99.90
66422;DHT22;53228;51.380;0.098;2022-07-25T01:40:42;20.00;99.90
66422;DHT22;53228;51.380;0.098;2022-07-25T01:43:10;20.00;99.90
66422;DHT22;53228;51.380;0.098;2022-07-25T01:45:38;20.00;99.90
66422;DHT22;53228;51.380;0.098;2022-07-25T01:48:06;19.90;99.90
66422;DHT22;53228;51.380;0.098;2022-07-25T01:50:33;19.90;99.90
66422;DHT22;53228;51.380;0.098;2022-07-25T01:53:01;19.90;99.90
66422;DHT22;53228;51.380;0.098;2022-07-25T01:55:29;19.90;99.90
66422;DHT22;53228;51.380;0.098;2022-07-25T01:57:58;19.90;99.90
66422;DHT22;53228;51.380;0.098;2022-07-25T02:00:26;19.90;99.90
66422;DHT22;53228;51.380;0.098;2022-07-25T02:02:54;19.90;99.90
66422;DHT22;53228;51.380;0.098;2022-07-25T02:05:40;19.80;99.90
66422;DHT22;53228;51.380;0.098;2022-07-25T02:08:08;19.80;99.90
66422;DHT22;53228;51.380;0.098;2022-07-25T02:13:05;19.80;99.90
66422;DHT22;53228;51.380;0.098;2022-07-25T02:15:34;19.80;99.90
66422;DHT22;53228;51.380;0.098;2022-07-25T02:18:02;19.70;99.90
66422;DHT22;53228;51.380;0.098;2022-07-25T02:20:29;19.70;99.90
66422;DHT22;53228;51.380;0.098;2022-07-25T02:22:57;19.70;99.90
66422;DHT22;53228;51.380;0.098;2022-07-25T02:25:25;19.70;99.90
66422;DHT22;53228;51.380;0.098;2022-07-25T02:27:53;19.70;99.90
66422;DHT22;53228;51.380;0.098;2022-07-25T02:30:21;19.70;99.90
66422;DHT22;53228;51.380;0.098;2022-07-25T02:32:49;20.30;99.90
66422;DHT22;53228;51.380;0.098;2022-07-25T02:35:17;19.70;99.90
66422;DHT22;53228;51.380;0.098;2022-07-25T02:37:45;19.70;99.90
66422;DHT22;53228;51.380;0.098;2022-07-25T02:40:13;19.70;99.90
66422;DHT22;53228;51.380;0.098;2022-07-25T02:42:40;19.70;99.90
66422;DHT22;53228;51.380;0.098;2022-07-25T02:45:09;19.70;99.90
66422;DHT22;53228;51.380;0.098;2022-07-25T02:47:37;19.60;99.90
66422;DHT22;53228;51.380;0.098;2022-07-25T02:50:05;19.60;99.90
66422;DHT22;53228;51.380;0.098;2022-07-25T02:52:34;19.60;99.90
66422;DHT22;53228;51.380;0.098;2022-07-25T02:55:02;19.50;99.90
66422;DHT22;53228;51.380;0.098;2022-07-25T02:57:36;19.50;99.90
66422;DHT22;53228;51.380;0.098;2022-07-25T03:00:05;19.40;99.90
66422;DHT22;53228;51.380;0.098;2022-07-25T03:02:33;19.40;99.90
66422;DHT22;53228;51.380;0.098;2022-07-25T03:05:04;19.40;99.90
66422;DHT22;53228;51.380;0.098;2022-07-25T03:07:31;19.30;99.90
66422;DHT22;53228;51.380;0.098;2022-07-25T03:09:59;19.30;99.90
66422;DHT22;53228;51.380;0.098;2022-07-25T03:12:26;19.30;99.90
66422;DHT22;53228;51.380;0.098;2022-07-25T03:14:54;19.20;99.90
66422;DHT22;53228;51.380;0.098;2022-07-25T03:17:22;19.20;99.90
66422;DHT22;53228;51.380;0.098;2022-07-25T03:19:49;19.20;99.90
66422;DHT22;53228;51.380;0.098;2022-07-25T03:22:17;19.20;99.90
66422;DHT22;53228;51.380;0.098;2022-07-25T03:24:45;19.20;99.90
66422;DHT22;53228;51.380;0.098;2022-07-25T03:27:12;19.20;99.90
66422;DHT22;53228;51.380;0.098;2022-07-25T03:29:40;19.20;99.90
66422;DHT22;53228;51.380;0.098;2022-07-25T03:32:08;19.20;99.90
66422;DHT22;53228;51.380;0.098;2022-07-25T03:34:36;19.30;99.90
66422;DHT22;53228;51.380;0.098;2022-07-25T03:37:04;19.20;99.90
66422;DHT22;53228;51.380;0.098;2022-07-25T03:39:32;19.20;99.90
66422;DHT22;53228;51.380;0.098;2022-07-25T03:42:00;19.10;99.90
66422;DHT22;53228;51.380;0.098;2022-07-25T03:44:27;19.20;99.90
66422;DHT22;53228;51.380;0.098;2022-07-25T03:46:55;19.10;99.90
66422;DHT22;53228;51.380;0.098;2022-07-25T03:49:22;19.20;99.90
66422;DHT22;53228;51.380;0.098;2022-07-25T03:51:50;19.10;99.90
66422;DHT22;53228;51.380;0.098;2022-07-25T03:54:18;19.10;99.90
66422;DHT22;53228;51.380;0.098;2022-07-25T03:56:48;19.10;99.90
66422;DHT22;53228;51.380;0.098;2022-07-25T03:59:18;19.20;99.90
66422;DHT22;53228;51.380;0.098;2022-07-25T04:01:48;19.20;99.90
66422;DHT22;53228;51.380;0.098;2022-07-25T04:04:17;19.00;99.90
66422;DHT22;53228;51.380;0.098;2022-07-25T04:06:46;19.20;99.90
66422;DHT22;53228;51.380;0.098;2022-07-25T04:09:14;19.20;99.90
66422;DHT22;53228;51.380;0.098;2022-07-25T04:11:42;19.20;99.90
66422;DHT22;53228;51.380;0.098;2022-07-25T04:14:09;19.20;99.90
66422;DHT22;53228;51.380;0.098;2022-07-25T04:16:37;19.20;99.90
66422;DHT22;53228;51.380;0.098;2022-07-25T04:19:06;19.20;99.90
66422;DHT22;53228;51.380;0.098;2022-07-25T04:21:35;19.20;99.90
66422;DHT22;53228;51.380;0.098;2022-07-25T04:24:02;19.20;99.90
66422;DHT22;53228;51.380;0.098;2022-07-25T04:26:31;19.20;99.90
66422;DHT22;53228;51.380;0.098;2022-07-25T04:28:58;19.20;99.90
66422;DHT22;53228;51.380;0.098;2022-07-25T04:31:29;19.20;99.90
66422;DHT22;53228;51.380;0.098;2022-07-25T04:33:58;19.30;99.90
66422;DHT22;53228;51.380;0.098;2022-07-25T04:36:25;19.20;99.90
66422;DHT22;53228;51.380;0.098;2022-07-25T04:38:53;19.20;99.90
66422;DHT22;53228;51.380;0.098;2022-07-25T04:41:20;19.20;99.90
66422;DHT22;53228;51.380;0.098;2022-07-25T04:43:48;19.20;99.90
66422;DHT22;53228;51.380;0.098;2022-07-25T04:46:19;19.20;99.90
66422;DHT22;53228;51.380;0.098;2022-07-25T04:48:48;19.20;99.90
66422;DHT22;53228;51.380;0.098;2022-07-25T04:51:17;19.20;99.90
66422;DHT22;53228;51.380;0.098;2022-07-25T04:53:45;19.20;99.90
66422;DHT22;53228;51.380;0.098;2022-07-25T04:58:41;19.20;99.90
66422;DHT22;53228;51.380;0.098;2022-07-25T05:01:08;19.10;99.90
66422;DHT22;53228;51.380;0.098;2022-07-25T05:03:36;19.20;99.90
66422;DHT22;53228;51.380;0.098;2022-07-25T05:06:04;19.20;99.90
66422;DHT22;53228;51.380;0.098;2022-07-25T05:08:32;19.20;99.90
66422;DHT22;53228;51.380;0.098;2022-07-25T05:10:59;19.20;99.90
66422;DHT22;53228;51.380;0.098;2022-07-25T05:13:27;19.10;99.90
66422;DHT22;53228;51.380;0.098;2022-07-25T05:15:54;19.10;99.90
66422;DHT22;53228;51.380;0.098;2022-07-25T05:18:22;19.10;99.90
66422;DHT22;53228;51.380;0.098;2022-07-25T05:20:49;19.10;99.90
66422;DHT22;53228;51.380;0.098;2022-07-25T05:23:17;19.00;99.90
66422;DHT22;53228;51.380;0.098;2022-07-25T05:25:45;19.00;99.90
66422;DHT22;53228;51.380;0.098;2022-07-25T05:28:13;19.00;99.90
66422;DHT22;53228;51.380;0.098;2022-07-25T05:30:41;19.00;99.90
66422;DHT22;53228;51.380;0.098;2022-07-25T05:33:09;19.10;99.90
66422;DHT22;53228;51.380;0.098;2022-07-25T05:35:37;19.10;99.90
66422;DHT22;53228;51.380;0.098;2022-07-25T05:38:04;19.20;99.90
66422;DHT22;53228;51.380;0.098;2022-07-25T05:40:32;19.20;99.90
66422;DHT22;53228;51.380;0.098;2022-07-25T05:43:00;19.30;99.90
66422;DHT22;53228;51.380;0.098;2022-07-25T05:45:30;19.40;99.90
66422;DHT22;53228;51.380;0.098;2022-07-25T05:47:57;19.30;99.90
66422;DHT22;53228;51.380;0.098;2022-07-25T05:50:25;19.50;99.90
66422;DHT22;53228;51.380;0.098;2022-07-25T05:52:53;19.50;99.90
66422;DHT22;53228;51.380;0.098;2022-07-25T05:55:20;19.60;99.90
66422;DHT22;53228;51.380;0.098;2022-07-25T05:57:48;19.60;99.90
66422;DHT22;53228;51.380;0.098;2022-07-25T06:00:15;19.70;99.90
66422;DHT22;53228;51.380;0.098;2022-07-25T06:02:43;19.80;99.90
66422;DHT22;53228;51.380;0.098;2022-07-25T06:05:11;19.90;99.90
66422;DHT22;53228;51.380;0.098;2022-07-25T06:07:39;20.00;99.90
66422;DHT22;53228;51.380;0.098;2022-07-25T06:10:07;20.00;99.90
66422;DHT22;53228;51.380;0.098;2022-07-25T06:12:35;20.00;99.90
66422;DHT22;53228;51.380;0.098;2022-07-25T06:15:04;19.80;99.90
66422;DHT22;53228;51.380;0.098;2022-07-25T06:17:32;19.80;99.90
66422;DHT22;53228;51.380;0.098;2022-07-25T06:20:00;19.90;99.90
66422;DHT22;53228;51.380;0.098;2022-07-25T06:22:29;19.90;99.90
66422;DHT22;53228;51.380;0.098;2022-07-25T06:24:57;20.00;99.90
66422;DHT22;53228;51.380;0.098;2022-07-25T06:27:24;20.20;99.90
66422;DHT22;53228;51.380;0.098;2022-07-25T06:29:55;20.30;99.90
66422;DHT22;53228;51.380;0.098;2022-07-25T06:32:23;20.60;99.90
66422;DHT22;53228;51.380;0.098;2022-07-25T06:34:51;20.60;99.90
66422;DHT22;53228;51.380;0.098;2022-07-25T06:37:18;20.70;99.90
66422;DHT22;53228;51.380;0.098;2022-07-25T06:39:46;20.80;99.90
66422;DHT22;53228;51.380;0.098;2022-07-25T06:42:13;20.70;99.90
66422;DHT22;53228;51.380;0.098;2022-07-25T06:44:42;20.70;99.90
66422;DHT22;53228;51.380;0.098;2022-07-25T06:47:10;20.70;99.90
66422;DHT22;53228;51.380;0.098;2022-07-25T06:49:41;20.70;99.90
66422;DHT22;53228;51.380;0.098;2022-07-25T06:52:09;20.80;99.90
66422;DHT22;53228;51.380;0.098;2022-07-25T06:54:36;20.80;99.90
66422;DHT22;53228;51.380;0.098;2022-07-25T06:57:04;20.90;99.90
66422;DHT22;53228;51.380;0.098;2022-07-25T06:59:31;21.00;99.90
66422;DHT22;53228;51.380;0.098;2022-07-25T07:02:00;21.00;99.90
66422;DHT22;53228;51.380;0.098;2022-07-25T07:04:28;21.10;99.90
66422;DHT22;53228;51.380;0.098;2022-07-25T07:06:56;21.10;99.90
66422;DHT22;53228;51.380;0.098;2022-07-25T07:09:23;21.10;99.90
66422;DHT22;53228;51.380;0.098;2022-07-25T07:11:52;21.10;99.90
66422;DHT22;53228;51.380;0.098;2022-07-25T07:14:19;21.00;99.90
66422;DHT22;53228;51.380;0.098;2022-07-25T07:16:47;20.90;99.90
66422;DHT22;53228;51.380;0.098;2022-07-25T07:19:16;21.10;99.90
66422;DHT22;53228;51.380;0.098;2022-07-25T07:21:44;20.80;99.90
66422;DHT22;53228;51.380;0.098;2022-07-25T07:24:13;20.70;99.90
66422;DHT22;53228;51.380;0.098;2022-07-25T07:26:52;20.70;99.90
66422;DHT22;53228;51.380;0.098;2022-07-25T07:29:20;20.70;99.90
66422;DHT22;53228;51.380;0.098;2022-07-25T07:31:48;20.60;99.90
66422;DHT22;53228;51.380;0.098;2022-07-25T07:34:16;20.80;99.90
66422;DHT22;53228;51.380;0.098;2022-07-25T07:36:44;20.80;99.90
66422;DHT22;53228;51.380;0.098;2022-07-25T07:39:11;20.80;99.90
66422;DHT22;53228;51.380;0.098;2022-07-25T07:41:39;20.90;99.90
66422;DHT22;53228;51.380;0.098;2022-07-25T07:44:06;20.90;99.90
66422;DHT22;53228;51.380;0.098;2022-07-25T07:46:34;21.00;99.90
66422;DHT22;53228;51.380;0.098;2022-07-25T07:49:02;21.10;99.90
66422;DHT22;53228;51.380;0.098;2022-07-25T07:51:30;21.10;99.90
66422;DHT22;53228;51.380;0.098;2022-07-25T07:53:58;21.30;99.90
66422;DHT22;53228;51.380;0.098;2022-07-25T07:56:44;21.30;99.90
66422;DHT22;53228;51.380;0.098;2022-07-25T07:59:12;21.40;99.90
66422;DHT22;53228;51.380;0.098;2022-07-25T08:01:39;21.40;99.90
66422;DHT22;53228;51.380;0.098;2022-07-25T08:04:07;21.40;99.90
66422;DHT22;53228;51.380;0.098;2022-07-25T08:06:34;21.30;99.90
66422;DHT22;53228;51.380;0.098;2022-07-25T08:09:03;21.40;99.90
66422;DHT22;53228;51.380;0.098;2022-07-25T08:11:31;21.50;99.90
66422;DHT22;53228;51.380;0.098;2022-07-25T08:13:59;21.70;99.90
66422;DHT22;53228;51.380;0.098;2022-07-25T08:16:26;21.90;99.90
66422;DHT22;53228;51.380;0.098;2022-07-25T08:18:54;21.90;99.90
66422;DHT22;53228;51.380;0.098;2022-07-25T08:21:22;21.90;99.90
66422;DHT22;53228;51.380;0.098;2022-07-25T08:23:50;21.80;99.90
66422;DHT22;53228;51.380;0.098;2022-07-25T08:26:18;21.60;99.90
66422;DHT22;53228;51.380;0.098;2022-07-25T08:28:45;21.40;99.90
66422;DHT22;53228;51.380;0.098;2022-07-25T08:31:21;21.30;99.90
66422;DHT22;53228;51.380;0.098;2022-07-25T08:33:49;21.30;99.90
66422;DHT22;53228;51.380;0.098;2022-07-25T08:36:17;21.30;99.90
66422;DHT22;53228;51.380;0.098;2022-07-25T08:38:45;21.30;99.90
66422;DHT22;53228;51.380;0.098;2022-07-25T08:41:12;21.30;99.90
66422;DHT22;53228;51.380;0.098;2022-07-25T08:43:41;21.50;99.90
66422;DHT22;53228;51.380;0.098;2022-07-25T08:46:09;21.70;99.90
66422;DHT22;53228;51.380;0.098;2022-07-25T08:48:37;22.00;99.90
66422;DHT22;53228;51.380;0.098;2022-07-25T08:51:06;22.30;99.90
66422;DHT22;53228;51.380;0.098;2022-07-25T08:53:35;22.40;99.90
66422;DHT22;53228;51.380;0.098;2022-07-25T08:56:04;22.30;99.60
66422;DHT22;53228;51.380;0.098;2022-07-25T08:58:40;22.10;99.00
66422;DHT22;53228;51.380;0.098;2022-07-25T09:01:13;21.90;99.10
66422;DHT22;53228;51.380;0.098;2022-07-25T09:03:42;22.90;99.50
66422;DHT22;53228;51.380;0.098;2022-07-25T09:06:28;21.60;99.30
66422;DHT22;53228;51.380;0.098;2022-07-25T09:08:59;21.50;99.10
66422;DHT22;53228;51.380;0.098;2022-07-25T09:11:30;21.50;99.50
66422;DHT22;53228;51.380;0.098;2022-07-25T09:14:10;21.70;99.40
66422;DHT22;53228;51.380;0.098;2022-07-25T09:16:43;21.70;99.30
66422;DHT22;53228;51.380;0.098;2022-07-25T09:19:19;21.90;99.30
66422;DHT22;53228;51.380;0.098;2022-07-25T09:22:03;21.80;99.10
66422;DHT22;53228;51.380;0.098;2022-07-25T09:24:33;21.80;99.30
66422;DHT22;53228;51.380;0.098;2022-07-25T09:27:08;21.60;99.10
66422;DHT22;53228;51.380;0.098;2022-07-25T09:29:39;21.40;99.30
66422;DHT22;53228;51.380;0.098;2022-07-25T09:32:17;21.40;99.80
66422;DHT22;53228;51.380;0.098;2022-07-25T09:34:47;21.30;99.80
66422;DHT22;53228;51.380;0.098;2022-07-25T09:37:16;21.30;99.80
66422;DHT22;53228;51.380;0.098;2022-07-25T09:39:47;21.50;99.90
66422;DHT22;53228;51.380;0.098;2022-07-25T09:44:58;21.50;99.50
66422;DHT22;53228;51.380;0.098;2022-07-25T09:47:26;21.40;99.40
66422;DHT22;53228;51.380;0.098;2022-07-25T09:49:54;21.30;99.40
66422;DHT22;53228;51.380;0.098;2022-07-25T09:52:22;21.30;99.50
66422;DHT22;53228;51.380;0.098;2022-07-25T09:54:50;21.40;99.60
66422;DHT22;53228;51.380;0.098;2022-07-25T09:57:17;19.30;99.10
66422;DHT22;53228;51.380;0.098;2022-07-25T09:59:45;21.70;99.30
66422;DHT22;53228;51.380;0.098;2022-07-25T10:04:44;21.90;98.70
66422;DHT22;53228;51.380;0.098;2022-07-25T10:07:14;22.60;98.60
66422;DHT22;53228;51.380;0.098;2022-07-25T10:09:47;21.80;98.60
66422;DHT22;53228;51.380;0.098;2022-07-25T10:12:20;20.60;98.10
66422;DHT22;53228;51.380;0.098;2022-07-25T10:15:07;21.80;98.70
66422;DHT22;53228;51.380;0.098;2022-07-25T10:17:38;21.80;98.90
66422;DHT22;53228;51.380;0.098;2022-07-25T10:20:09;22.00;98.40
66422;DHT22;53228;51.380;0.098;2022-07-25T10:22:40;22.10;98.60
66422;DHT22;53228;51.380;0.098;2022-07-25T10:25:25;22.10;97.70
66422;DHT22;53228;51.380;0.098;2022-07-25T10:27:58;22.10;97.60
66422;DHT22;53228;51.380;0.098;2022-07-25T10:30:39;22.40;97.30
66422;DHT22;53228;51.380;0.098;2022-07-25T10:33:16;22.40;97.20
66422;DHT22;53228;51.380;0.098;2022-07-25T10:35:44;22.90;96.60
66422;DHT22;53228;51.380;0.098;2022-07-25T10:38:12;23.00;96.90
66422;DHT22;53228;51.380;0.098;2022-07-25T10:40:44;23.10;94.50
66422;DHT22;53228;51.380;0.098;2022-07-25T10:43:18;23.10;94.10
66422;DHT22;53228;51.380;0.098;2022-07-25T10:45:56;23.00;93.90
66422;DHT22;53228;51.380;0.098;2022-07-25T10:48:34;22.80;93.30
66422;DHT22;53228;51.380;0.098;2022-07-25T10:51:13;22.70;93.60
66422;DHT22;53228;51.380;0.098;2022-07-25T10:56:21;22.60;94.50
66422;DHT22;53228;51.380;0.098;2022-07-25T10:58:50;22.70;94.40
66422;DHT22;53228;51.380;0.098;2022-07-25T11:03:58;23.10;93.60
66422;DHT22;53228;51.380;0.098;2022-07-25T11:08:59;23.30;94.10
66422;DHT22;53228;51.380;0.098;2022-07-25T11:11:35;23.40;93.50
66422;DHT22;53228;51.380;0.098;2022-07-25T11:14:04;23.70;93.60
66422;DHT22;53228;51.380;0.098;2022-07-25T11:16:32;24.00;92.20
66422;DHT22;53228;51.380;0.098;2022-07-25T11:19:00;24.00;92.50
66422;DHT22;53228;51.380;0.098;2022-07-25T11:21:28;24.10;91.00
66422;DHT22;53228;51.380;0.098;2022-07-25T11:23:56;24.10;91.50
66422;DHT22;53228;51.380;0.098;2022-07-25T11:26:24;24.10;91.40
66422;DHT22;53228;51.380;0.098;2022-07-25T11:28:51;24.10;91.40
66422;DHT22;53228;51.380;0.098;2022-07-25T11:31:21;24.00;91.40
66422;DHT22;53228;51.380;0.098;2022-07-25T11:33:49;23.80;91.70
66422;DHT22;53228;51.380;0.098;2022-07-25T11:36:17;23.70;91.80
66422;DHT22;53228;51.380;0.098;2022-07-25T11:38:48;23.60;92.20
66422;DHT22;53228;51.380;0.098;2022-07-25T11:41:27;23.70;92.30
66422;DHT22;53228;51.380;0.098;2022-07-25T11:43:55;23.60;91.60
66422;DHT22;53228;51.380;0.098;2022-07-25T11:46:23;23.50;92.10
66422;DHT22;53228;51.380;0.098;2022-07-25T11:49:02;23.20;92.20
66422;DHT22;53228;51.380;0.098;2022-07-25T11:51:36;23.00;93.10
66422;DHT22;53228;51.380;0.098;2022-07-25T11:54:08;22.70;93.70
66422;DHT22;53228;51.380;0.098;2022-07-25T11:56:37;22.50;94.30
66422;DHT22;53228;51.380;0.098;2022-07-25T11:59:09;22.40;94.70
66422;DHT22;53228;51.380;0.098;2022-07-25T12:01:41;22.20;97.60
66422;DHT22;53228;51.380;0.098;2022-07-25T12:04:15;21.90;99.10
66422;DHT22;53228;51.380;0.098;2022-07-25T12:06:46;21.90;99.30
66422;DHT22;53228;51.380;0.098;2022-07-25T12:09:19;21.90;99.40
66422;DHT22;53228;51.380;0.098;2022-07-25T12:11:48;22.10;99.30
66422;DHT22;53228;51.380;0.098;2022-07-25T12:14:16;22.20;99.60
66422;DHT22;53228;51.380;0.098;2022-07-25T12:16:43;22.30;99.80
66422;DHT22;53228;51.380;0.098;2022-07-25T12:19:20;22.30;99.40
66422;DHT22;53228;51.380;0.098;2022-07-25T12:21:48;22.60;99.00
66422;DHT22;53228;51.380;0.098;2022-07-25T12:24:15;22.50;98.90
66422;DHT22;53228;51.380;0.098;2022-07-25T12:26:43;22.60;98.90
66422;DHT22;53228;51.380;0.098;2022-07-25T12:29:11;22.80;99.20
66422;DHT22;53228;51.380;0.098;2022-07-25T12:31:38;22.80;98.40
66422;DHT22;53228;51.380;0.098;2022-07-25T12:34:06;22.80;97.80
66422;DHT22;53228;51.380;0.098;2022-07-25T12:36:34;22.80;97.30
66422;DHT22;53228;51.380;0.098;2022-07-25T12:39:07;23.00;96.90
66422;DHT22;53228;51.380;0.098;2022-07-25T12:41:35;22.90;97.00
66422;DHT22;53228;51.380;0.098;2022-07-25T12:44:03;23.00;96.80
66422;DHT22;53228;51.380;0.098;2022-07-25T12:46:31;23.10;96.30
66422;DHT22;53228;51.380;0.098;2022-07-25T12:48:59;23.00;96.10
66422;DHT22;53228;51.380;0.098;2022-07-25T12:51:27;22.90;96.10
66422;DHT22;53228;51.380;0.098;2022-07-25T12:53:54;22.80;95.90
66422;DHT22;53228;51.380;0.098;2022-07-25T12:56:22;22.70;95.90
66422;DHT22;53228;51.380;0.098;2022-07-25T12:58:49;22.50;96.80
66422;DHT22;53228;51.380;0.098;2022-07-25T13:01:17;22.40;98.20
66422;DHT22;53228;51.380;0.098;2022-07-25T13:03:45;22.30;99.60
66422;DHT22;53228;51.380;0.098;2022-07-25T13:06:12;22.20;99.50
66422;DHT22;53228;51.380;0.098;2022-07-25T13:08:40;22.30;99.70
66422;DHT22;53228;51.380;0.098;2022-07-25T13:11:07;22.30;99.60
66422;DHT22;53228;51.380;0.098;2022-07-25T13:13:35;22.50;99.40
66422;DHT22;53228;51.380;0.098;2022-07-25T13:16:03;22.60;99.10
66422;DHT22;53228;51.380;0.098;2022-07-25T13:18:31;22.80;99.00
66422;DHT22;53228;51.380;0.098;2022-07-25T13:20:59;23.00;98.00
66422;DHT22;53228;51.380;0.098;2022-07-25T13:23:29;23.00;98.00
66422;DHT22;53228;51.380;0.098;2022-07-25T13:25:57;23.00;96.90
66422;DHT22;53228;51.380;0.098;2022-07-25T13:28:26;23.00;95.80
66422;DHT22;53228;51.380;0.098;2022-07-25T13:30:54;23.00;94.30
66422;DHT22;53228;51.380;0.098;2022-07-25T13:33:22;23.00;95.00
66422;DHT22;53228;51.380;0.098;2022-07-25T13:35:50;23.20;95.40
66422;DHT22;53228;51.380;0.098;2022-07-25T13:38:18;23.50;94.50
66422;DHT22;53228;51.380;0.098;2022-07-25T13:40:46;24.00;93.60
66422;DHT22;53228;51.380;0.098;2022-07-25T13:45:42;24.50;90.30
66422;DHT22;53228;51.380;0.098;2022-07-25T13:48:10;24.80;90.80
66422;DHT22;53228;51.380;0.098;2022-07-25T13:50:56;25.30;89.40
66422;DHT22;53228;51.380;0.098;2022-07-25T13:53:24;25.80;88.20
66422;DHT22;53228;51.380;0.098;2022-07-25T13:58:25;26.10;84.30
66422;DHT22;53228;51.380;0.098;2022-07-25T14:00:54;26.20;83.60
66422;DHT22;53228;51.380;0.098;2022-07-25T14:03:22;26.40;84.20
66422;DHT22;53228;51.380;0.098;2022-07-25T14:05:49;26.70;84.00
66422;DHT22;53228;51.380;0.098;2022-07-25T14:08:17;27.00;83.90
66422;DHT22;53228;51.380;0.098;2022-07-25T14:10:45;27.30;82.10
66422;DHT22;53228;51.380;0.098;2022-07-25T14:13:14;27.50;80.00
66422;DHT22;53228;51.380;0.098;2022-07-25T14:18:11;27.90;78.30
66422;DHT22;53228;51.380;0.098;2022-07-25T14:20:41;28.20;74.60
66422;DHT22;53228;51.380;0.098;2022-07-25T14:23:09;28.30;76.70
66422;DHT22;53228;51.380;0.098;2022-07-25T14:25:37;28.10;74.40
66422;DHT22;53228;51.380;0.098;2022-07-25T14:28:04;28.10;74.90
66422;DHT22;53228;51.380;0.098;2022-07-25T14:30:32;27.80;75.30
66422;DHT22;53228;51.380;0.098;2022-07-25T14:33:00;27.60;75.60
66422;DHT22;53228;51.380;0.098;2022-07-25T14:37:59;26.90;75.70
66422;DHT22;53228;51.380;0.098;2022-07-25T14:40:26;26.10;77.30
66422;DHT22;53228;51.380;0.098;2022-07-25T14:42:54;26.00;78.10
66422;DHT22;53228;51.380;0.098;2022-07-25T14:45:22;25.90;77.90
66422;DHT22;53228;51.380;0.098;2022-07-25T14:47:50;25.80;78.40
66422;DHT22;53228;51.380;0.098;2022-07-25T14:50:18;25.70;78.50
66422;DHT22;53228;51.380;0.098;2022-07-25T14:52:45;25.60;79.40
66422;DHT22;53228;51.380;0.098;2022-07-25T14:55:13;25.60;78.60
66422;DHT22;53228;51.380;0.098;2022-07-25T14:57:43;25.80;78.20
66422;DHT22;53228;51.380;0.098;2022-07-25T15:00:11;26.00;76.70
66422;DHT22;53228;51.380;0.098;2022-07-25T15:05:08;26.10;75.90
66422;DHT22;53228;51.380;0.098;2022-07-25T15:07:36;26.00;75.20
66422;DHT22;53228;51.380;0.098;2022-07-25T15:10:04;25.90;76.10
66422;DHT22;53228;51.380;0.098;2022-07-25T15:12:33;25.80;76.80
66422;DHT22;53228;51.380;0.098;2022-07-25T15:15:00;25.70;77.60
66422;DHT22;53228;51.380;0.098;2022-07-25T15:20:44;25.60;78.00
66422;DHT22;53228;51.380;0.098;2022-07-25T15:23:14;25.50;78.00
66422;DHT22;53228;51.380;0.098;2022-07-25T15:25:42;25.40;77.90
66422;DHT22;53228;51.380;0.098;2022-07-25T15:28:35;25.30;78.20
66422;DHT22;53228;51.380;0.098;2022-07-25T15:31:05;25.10;79.30
66422;DHT22;53228;51.380;0.098;2022-07-25T15:33:33;25.00;79.60
66422;DHT22;53228;51.380;0.098;2022-07-25T15:38:28;25.00;79.50
66422;DHT22;53228;51.380;0.098;2022-07-25T15:40:57;25.00;80.70
66422;DHT22;53228;51.380;0.098;2022-07-25T15:43:26;24.90;79.40
66422;DHT22;53228;51.380;0.098;2022-07-25T15:45:53;24.80;80.60
66422;DHT22;53228;51.380;0.098;2022-07-25T15:48:21;24.70;80.40
66422;DHT22;53228;51.380;0.098;2022-07-25T15:50:50;24.60;80.70
66422;DHT22;53228;51.380;0.098;2022-07-25T15:55:46;24.40;80.70
66422;DHT22;53228;51.380;0.098;2022-07-25T15:58:14;24.20;81.00
66422;DHT22;53228;51.380;0.098;2022-07-25T16:00:42;24.20;81.70
66422;DHT22;53228;51.380;0.098;2022-07-25T16:03:10;24.00;81.90
66422;DHT22;53228;51.380;0.098;2022-07-25T16:05:38;24.00;82.20
66422;DHT22;53228;51.380;0.098;2022-07-25T16:08:07;24.00;82.30
66422;DHT22;53228;51.380;0.098;2022-07-25T16:10:34;24.00;83.80
66422;DHT22;53228;51.380;0.098;2022-07-25T16:13:02;24.00;83.20
66422;DHT22;53228;51.380;0.098;2022-07-25T16:17:58;24.20;83.80
66422;DHT22;53228;51.380;0.098;2022-07-25T16:20:30;24.20;83.50
66422;DHT22;53228;51.380;0.098;2022-07-25T16:22:59;24.20;84.20